Airfield :
LOGIN :

Register | Disclaimer

   EN    FR    IT 

 










Legend :    VFR   Marginal VFR   IFR   Intensive IFR   Very Intensive IFR
Visi :
Ceiling :
>= 8 km
>= 3000ft
5 to 8 km
1000 to 3000 ft
1500m to 5 km
500 to 1000 ft
800 to 1500m
200 to 500 ft
< 800m
< 200 ft
Symbols :   Thunderstorms  Fog  Heavy snow  Heavy precipitations  Wind > 20 kt
SIGMETs :     Misc.  Thunderstorms  Icing  Turbulence  Mountain Waves  Volcanic Ashes






- Airport Elevation : 584 ft


LFPV - Villacoublay Vélizy

CURRENT METAR :
  • 010800Z AUTO 26006KT 220V290 9999 FEW017 BKN024 BKN030 16/12 Q1013

EXPIRED METARs :
  • 010730Z AUTO 29005KT 250V330 9999 FEW016 16/12 Q1013 NOSIG
  • 010700Z AUTO 30005KT 270V330 CAVOK 15/13 Q1013 NOSIG
  • 010630Z AUTO 29006KT CAVOK 15/12 Q1012 NOSIG
  • 010600Z AUTO 30006KT CAVOK 14/12 Q1012 NOSIG
  • 010530Z AUTO 28006KT 9999 SCT029 13/12 Q1012 NOSIG

TAF TAF LFPV
Valid from the 01 at 03:00 until the 02 at 03:00 UTC


010200Z 0103/0203 31003KT CAVOK TX22/0115Z TN12/0103Z
BECMG 0108/0110 BKN015
TEMPO 0113/0122 4500 SHRA SCT025CB
PROB40
TEMPO 0114/0118 2500 TSRA SCT020CB



MET'MAP, your aeronautical weather chart ! - Copyright ORBIFLY December 2007 - Disclaimer

ORBIFLY MET'MAP TEAM :

Programming & Development : Alexandra Zaïnal
Concept & original design : Baudouin d'Aumeries
Assistance for programming : Marc-Olivier Méhu
Technical & hardware support : Manuel Goepfert

Contact : metmap@orbifly.com




SOURCES & CREDITS :

   NOAA